Time;durP1;ratioP1;P1;durP2;ratioP2;P2;SDS_P1;SDS_P2;PMS_P1;PMS_P2;Temp;Humidity;BMP_temperature;BMP_pressure;BME280_temperature;BME280_humidity;BME280_pressure;Samples;Min_cycle;Max_cycle;Signal;HPM_P1;HPM_P2
2022/12/11 00:00:22;;;;;;;;;;;;;;;3.95;100.00;97051.59;5067532;28;19925;-60
2022/12/11 00:02:48;;;;;;;;;;;;;;;3.97;100.00;97052.94;5068147;28;19929;-59
2022/12/11 00:05:15;;;;;;;;;;;;;;;4.10;100.00;97054.47;5068074;28;19925;-59
2022/12/11 00:07:41;;;;;;;;;;;;;;;4.06;100.00;97051.50;5067758;28;19925;-59
2022/12/11 00:10:08;;;;;;;;;;;;;;;3.94;100.00;97050.78;5068083;28;19952;-59
2022/12/11 00:12:34;;;;;;;;;;;;;;;3.04;100.00;97061.41;5067897;28;19954;-59
2022/12/11 00:15:00;;;;;;;;;;;;;;;2.98;100.00;97048.38;5068035;28;19979;-59
2022/12/11 00:17:28;;;;;;;;;;;;;;;3.40;100.00;97062.06;5059666;28;19932;-59
2022/12/11 00:19:54;;;;;;;;;;;;;;;3.89;100.00;97058.66;5068090;28;19988;-59
2022/12/11 00:22:21;;;;;;;;;;;;;;;3.72;100.00;97060.47;5065477;28;19980;-59
2022/12/11 00:24:47;;;;;;;;;;;;;;;3.73;100.00;97062.09;5063056;28;19984;-59
2022/12/11 00:27:13;;;;;;;;;;;;;;;3.88;100.00;97062.31;5067980;28;19939;-60
2022/12/11 00:29:40;;;;;;;;;;;;;;;4.02;100.00;97055.69;5068201;28;19924;-59
2022/12/11 00:32:06;;;;;;;;;;;;;;;3.93;100.00;97059.75;5067956;28;19920;-58
2022/12/11 00:34:34;;;;;;;;;;;;;;;3.87;100.00;97063.34;5067575;28;20088;-58
2022/12/11 00:37:00;;;;;;;;;;;;;;;4.15;100.00;97060.59;5067872;28;19968;-58
2022/12/11 00:39:26;;;;;;;;;;;;;;;3.98;100.00;97057.19;5059758;28;19988;-59
2022/12/11 00:41:53;;;;;;;;;;;;;;;3.81;100.00;97073.03;5067768;28;19996;-58
2022/12/11 00:44:19;;;;;;;;;;;;;;;4.10;100.00;97073.75;5067374;28;19976;-58
2022/12/11 00:46:45;;;;;;;;;;;;;;;4.19;100.00;97074.94;5067507;28;20375;-59
2022/12/11 00:49:11;;;;;;;;;;;;;;;4.16;100.00;97070.16;5067553;28;20056;-59
2022/12/11 00:51:39;;;;;;;;;;;;;;;3.92;100.00;97075.84;5067775;28;20016;-60
2022/12/11 00:54:06;;;;;;;;;;;;;;;3.66;100.00;97085.19;5059854;28;19931;-59
2022/12/11 00:56:32;;;;;;;;;;;;;;;4.10;100.00;97083.50;5067879;28;19924;-59
2022/12/11 00:58:58;;;;;;;;;;;;;;;4.19;100.00;97093.44;5067835;28;19976;-59
2022/12/11 01:01:25;;;;;;;;;;;;;;;4.30;100.00;97095.19;5067590;28;19980;-59
2022/12/11 01:03:51;;;;;;;;;;;;;;;4.35;100.00;97095.25;5067606;28;20473;-60
2022/12/11 01:06:19;;;;;;;;;;;;;;;4.27;100.00;97102.81;5067305;28;19996;-58
2022/12/11 01:10:22;;;;;;;;;;;;;;;4.14;100.00;97097.84;5067398;28;20032;-62
2022/12/11 01:11:33;;;;;;;;;;;;;;;4.27;100.00;97100.94;5062782;28;19929;-60
2022/12/11 01:13:59;;;;;;;;;;;;;;;4.33;100.00;97101.84;5071235;28;19970;-59
2022/12/11 01:16:26;;;;;;;;;;;;;;;4.49;100.00;97113.44;5071071;28;19987;-59
2022/12/11 01:18:52;;;;;;;;;;;;;;;4.39;100.00;97113.28;5071069;28;19932;-59
2022/12/11 01:21:18;;;;;;;;;;;;;;;4.49;100.00;97113.44;5071296;28;19925;-59
2022/12/11 01:23:45;;;;;;;;;;;;;;;4.22;100.00;97108.81;5062737;28;20321;-59
2022/12/11 01:26:14;;;;;;;;;;;;;;;4.36;100.00;97114.56;5071000;28;19990;-59
2022/12/11 01:28:41;;;;;;;;;;;;;;;4.52;100.00;97113.72;5070923;28;19935;-59
2022/12/11 01:31:08;;;;;;;;;;;;;;;4.59;100.00;97124.13;5070759;28;19935;-60
2022/12/11 01:33:34;;;;;;;;;;;;;;;4.57;100.00;97116.44;5052932;28;19929;-58
2022/12/11 01:36:00;;;;;;;;;;;;;;;4.64;100.00;97114.41;5071128;28;19951;-60
2022/12/11 01:38:27;;;;;;;;;;;;;;;4.35;100.00;97119.06;5062921;28;19940;-59
2022/12/11 01:40:53;;;;;;;;;;;;;;;3.92;100.00;97123.38;5071224;28;19924;-58
2022/12/11 01:43:21;;;;;;;;;;;;;;;3.45;100.00;97122.84;5071119;28;19924;-58
2022/12/11 01:45:48;;;;;;;;;;;;;;;3.70;100.00;97125.94;5071037;28;19993;-58
2022/12/11 01:48:17;;;;;;;;;;;;;;;3.69;100.00;97113.75;5070824;28;19928;-59
2022/12/11 01:50:45;;;;;;;;;;;;;;;3.90;100.00;97115.69;5070844;28;19989;-59
2022/12/11 01:53:13;;;;;;;;;;;;;;;4.16;100.00;97114.25;5062601;28;20004;-58
2022/12/11 01:55:40;;;;;;;;;;;;;;;4.36;100.00;97110.06;5070509;28;19974;-59
2022/12/11 01:58:08;;;;;;;;;;;;;;;4.50;100.00;97105.25;5070649;28;19964;-59
2022/12/11 02:00:35;;;;;;;;;;;;;;;4.51;100.00;97111.34;5070691;28;20180;-59
2022/12/11 02:03:02;;;;;;;;;;;;;;;4.64;100.00;97108.34;5070962;28;19960;-60
2022/12/11 02:05:28;;;;;;;;;;;;;;;4.71;100.00;97112.41;5070647;28;19936;-61
2022/12/11 02:07:56;;;;;;;;;;;;;;;4.71;100.00;97106.31;5070249;28;20051;-59
2022/12/11 02:10:24;;;;;;;;;;;;;;;4.73;100.00;97114.81;5070384;28;20032;-61
2022/12/11 02:12:53;;;;;;;;;;;;;;;4.69;100.00;97108.41;5070184;28;19992;-60
2022/12/11 02:15:25;;;;;;;;;;;;;;;4.76;100.00;97109.03;5070088;28;20027;-60
2022/12/11 02:17:56;;;;;;;;;;;;;;;4.71;100.00;97111.59;5070298;28;19984;-58
2022/12/11 02:20:23;;;;;;;;;;;;;;;4.63;100.00;97114.66;5070105;28;20016;-59
2022/12/11 02:22:58;;;;;;;;;;;;;;;4.59;100.00;97122.28;5062660;28;19984;-59
2022/12/11 02:25:31;;;;;;;;;;;;;;;4.47;100.00;97116.31;5069696;28;19975;-59
2022/12/11 02:28:09;;;;;;;;;;;;;;;4.46;100.00;97113.88;5069957;28;19925;-59
2022/12/11 02:30:37;;;;;;;;;;;;;;;4.43;100.00;97109.09;5062808;28;19982;-60
2022/12/11 02:33:03;;;;;;;;;;;;;;;4.20;100.00;97110.91;5069838;28;19932;-58
2022/12/11 02:35:32;;;;;;;;;;;;;;;4.32;100.00;97111.63;5069727;28;19935;-59
2022/12/11 02:38:02;;;;;;;;;;;;;;;4.45;100.00;97112.31;5069835;28;19924;-58
2022/12/11 02:40:31;;;;;;;;;;;;;;;4.52;100.00;97112.94;5061636;28;19968;-59
2022/12/11 02:42:59;;;;;;;;;;;;;;;4.56;100.00;97119.31;5069825;28;19925;-59
2022/12/11 02:45:28;;;;;;;;;;;;;;;4.59;100.00;97106.44;5069894;28;19964;-59
2022/12/11 02:47:56;;;;;;;;;;;;;;;4.65;100.00;97102.81;5070211;28;19985;-59
2022/12/11 02:50:23;;;;;;;;;;;;;;;4.62;100.00;97108.56;5070105;28;19924;-59
2022/12/11 02:52:52;;;;;;;;;;;;;;;4.43;100.00;97098.50;5063014;28;19936;-60
2022/12/11 02:55:19;;;;;;;;;;;;;;;4.29;100.00;97098.06;5068293;28;19925;-60
2022/12/11 02:57:47;;;;;;;;;;;;;;;4.36;100.00;97098.72;5069232;28;19939;-59
2022/12/11 03:00:15;;;;;;;;;;;;;;;4.22;100.00;97097.44;5069324;28;19929;-58
2022/12/11 03:02:43;;;;;;;;;;;;;;;3.49;100.00;97087.84;5069138;28;19951;-58
2022/12/11 03:05:10;;;;;;;;;;;;;;;3.44;100.00;97087.72;5069479;28;20468;-59
2022/12/11 03:07:37;;;;;;;;;;;;;;;3.55;100.00;97078.16;5069318;28;19925;-59
2022/12/11 03:10:05;;;;;;;;;;;;;;;3.39;100.00;97086.84;5069186;28;19978;-58
2022/12/11 03:12:32;;;;;;;;;;;;;;;3.51;100.00;97087.56;5069130;28;19929;-60
2022/12/11 03:15:00;;;;;;;;;;;;;;;3.55;100.00;97086.06;5069324;28;19924;-60
2022/12/11 03:17:30;;;;;;;;;;;;;;;3.64;100.00;97087.28;5069082;28;19936;-60
2022/12/11 03:20:03;;;;;;;;;;;;;;;3.92;100.00;97092.50;5069161;28;19924;-59
2022/12/11 03:22:33;;;;;;;;;;;;;;;4.07;100.00;97084.00;5057264;28;19937;-59
2022/12/11 03:25:02;;;;;;;;;;;;;;;4.19;100.00;97092.63;5065400;28;19925;-59
2022/12/11 03:27:32;;;;;;;;;;;;;;;4.29;100.00;97098.88;5060572;28;19988;-59
2022/12/11 03:30:00;;;;;;;;;;;;;;;4.41;100.00;97108.53;5068757;28;19967;-59
2022/12/11 03:32:28;;;;;;;;;;;;;;;4.45;100.00;97113.13;5060572;28;19984;-59
2022/12/11 03:34:56;;;;;;;;;;;;;;;4.30;100.00;97105.75;5067845;28;19925;-60
2022/12/11 03:37:25;;;;;;;;;;;;;;;4.29;100.00;97104.16;5068767;28;19980;-60
2022/12/11 03:40:02;;;;;;;;;;;;;;;4.34;100.00;97100.78;5068447;28;19955;-59
2022/12/11 03:42:29;;;;;;;;;;;;;;;4.37;100.00;97116.16;5060656;28;19925;-59
2022/12/11 03:44:57;;;;;;;;;;;;;;;4.33;100.00;97113.19;5068551;28;19984;-59
2022/12/11 03:47:25;;;;;;;;;;;;;;;4.22;100.00;97118.56;5068272;28;19925;-59
2022/12/11 03:49:52;;;;;;;;;;;;;;;4.37;100.00;97118.78;5068607;28;19988;-60
2022/12/11 03:52:19;;;;;;;;;;;;;;;4.42;100.00;97112.78;5065990;28;19925;-59
2022/12/11 03:54:49;;;;;;;;;;;;;;;4.46;100.00;97111.25;5062967;28;19995;-59
2022/12/11 03:57:21;;;;;;;;;;;;;;;4.48;100.00;97109.19;5068374;28;19930;-58
2022/12/11 03:59:47;;;;;;;;;;;;;;;4.46;100.00;97104.13;5068259;28;19993;-59
2022/12/11 04:02:14;;;;;;;;;;;;;;;4.46;100.00;97113.88;5068440;28;19979;-59
2022/12/11 04:04:41;;;;;;;;;;;;;;;4.47;100.00;97115.50;5068303;28;19931;-58
2022/12/11 04:07:07;;;;;;;;;;;;;;;4.45;100.00;97109.66;5068300;28;19988;-58
2022/12/11 04:09:34;;;;;;;;;;;;;;;4.44;100.00;97100.13;5068434;28;19956;-59
2022/12/11 04:12:02;;;;;;;;;;;;;;;4.42;100.00;97118.09;5068180;28;19984;-59
2022/12/11 04:24:13;;;;;;;;;;;;;;;4.46;100.00;97119.19;5068123;28;19987;-58
2022/12/11 04:25:26;;;;;;;;;;;;;;;4.36;100.00;97118.00;5060188;28;19929;-59
2022/12/11 04:27:54;;;;;;;;;;;;;;;4.41;100.00;97114.63;5067813;28;20024;-59
2022/12/11 04:30:22;;;;;;;;;;;;;;;4.39;100.00;97114.09;5068019;28;20483;-59
2022/12/11 04:32:49;;;;;;;;;;;;;;;4.40;100.00;97120.16;5068062;28;19959;-59
2022/12/11 04:35:15;;;;;;;;;;;;;;;4.35;100.00;97119.06;5067804;28;19984;-59
2022/12/11 04:37:42;;;;;;;;;;;;;;;4.35;100.00;97119.06;5067787;28;20439;-59
2022/12/11 04:40:10;;;;;;;;;;;;;;;4.38;100.00;97116.97;5067819;28;19924;-59
2022/12/11 04:42:36;;;;;;;;;;;;;;;4.35;100.00;97115.59;5067858;28;19988;-59
2022/12/11 04:45:04;;;;;;;;;;;;;;;4.35;100.00;97119.06;5068060;28;19956;-59
2022/12/11 04:47:30;;;;;;;;;;;;;;;4.35;100.00;97119.06;5071834;28;19996;-60
2022/12/11 04:49:57;;;;;;;;;;;;;;;4.25;100.00;97108.31;5071752;28;19980;-59
2022/12/11 04:52:23;;;;;;;;;;;;;;;4.12;100.00;97118.41;5068680;28;19960;-60
2022/12/11 04:54:50;;;;;;;;;;;;;;;4.17;100.00;97116.66;5066588;28;19925;-59
2022/12/11 04:57:16;;;;;;;;;;;;;;;4.17;100.00;97108.75;5071389;28;19939;-59
2022/12/11 04:59:43;;;;;;;;;;;;;;;4.10;100.00;97108.09;5071447;28;19925;-60
2022/12/11 05:02:10;;;;;;;;;;;;;;;4.10;100.00;97123.94;5071431;28;20497;-59
2022/12/11 05:04:36;;;;;;;;;;;;;;;4.05;100.00;97117.78;5071196;28;19925;-60
2022/12/11 05:07:03;;;;;;;;;;;;;;;4.13;100.00;97106.81;5071129;28;19925;-58
2022/12/11 05:09:30;;;;;;;;;;;;;;;3.91;100.00;97106.75;5071210;28;20570;-59
2022/12/11 05:11:56;;;;;;;;;;;;;;;4.01;100.00;97106.91;5071129;28;19925;-58
2022/12/11 05:14:22;;;;;;;;;;;;;;;3.94;100.00;97100.97;5071275;28;19963;-59
2022/12/11 05:16:49;;;;;;;;;;;;;;;3.83;100.00;97107.16;5071120;28;19965;-59
2022/12/11 05:19:16;;;;;;;;;;;;;;;3.89;100.00;97098.25;5071051;28;20023;-59
2022/12/11 05:21:43;;;;;;;;;;;;;;;3.87;100.00;97099.56;5070993;28;19925;-58
2022/12/11 05:24:09;;;;;;;;;;;;;;;3.98;100.00;97102.09;5062631;28;19949;-60
2022/12/11 05:26:35;;;;;;;;;;;;;;;3.98;100.00;97102.09;5070826;28;19925;-60
2022/12/11 05:29:02;;;;;;;;;;;;;;;3.99;100.00;97102.91;5071137;28;19925;-60
2022/12/11 05:31:28;;;;;;;;;;;;;;;4.01;100.00;97100.81;5071074;28;19983;-59
2022/12/11 05:33:54;;;;;;;;;;;;;;;4.00;100.00;97107.94;5053249;28;19960;-60
2022/12/11 05:36:23;;;;;;;;;;;;;;;3.85;100.00;97093.69;5070708;28;20486;-58
2022/12/11 05:38:49;;;;;;;;;;;;;;;3.81;100.00;97103.94;5070871;28;19956;-58
2022/12/11 05:41:17;;;;;;;;;;;;;;;3.76;100.00;97104.66;5070655;28;20001;-61
2022/12/11 05:43:44;;;;;;;;;;;;;;;3.73;100.00;97099.84;5070877;28;20705;-60
2022/12/11 05:46:11;;;;;;;;;;;;;;;3.69;100.00;97108.47;5070853;28;19927;-60
2022/12/11 05:48:38;;;;;;;;;;;;;;;3.74;100.00;97108.59;5070406;28;19924;-59
2022/12/11 05:51:05;;;;;;;;;;;;;;;3.69;100.00;97100.56;5070720;28;19925;-59
2022/12/11 05:53:33;;;;;;;;;;;;;;;3.56;100.00;97101.66;5062421;28;20004;-59
2022/12/11 05:56:02;;;;;;;;;;;;;;;3.64;100.00;97096.00;5070394;28;20057;-60
2022/12/11 05:58:29;;;;;;;;;;;;;;;3.71;100.00;97098.50;5076903;28;19992;-60
2022/12/11 06:00:55;;;;;;;;;;;;;;;3.68;100.00;97086.56;5070347;28;19929;-59
2022/12/11 06:03:21;;;;;;;;;;;;;;;3.61;100.00;97100.97;5070569;28;19928;-59
2022/12/11 06:05:48;;;;;;;;;;;;;;;3.62;100.00;97102.56;5070561;28;19951;-59
2022/12/11 06:08:14;;;;;;;;;;;;;;;3.59;100.00;97095.13;5070433;28;19929;-59
2022/12/11 06:10:46;;;;;;;;;;;;;;;3.58;100.00;97096.97;5070165;28;19925;-58
2022/12/11 06:13:12;;;;;;;;;;;;;;;3.58;100.00;97089.03;5070203;28;19948;-59
2022/12/11 06:15:39;;;;;;;;;;;;;;;3.57;100.00;97094.53;5069884;28;19924;-58
2022/12/11 06:18:05;;;;;;;;;;;;;;;3.53;100.00;97096.06;5070219;28;20485;-59
2022/12/11 06:20:32;;;;;;;;;;;;;;;3.57;100.00;97095.34;5069978;28;19935;-59
2022/12/11 06:22:58;;;;;;;;;;;;;;;3.51;100.00;97100.78;5062269;28;19925;-59
2022/12/11 06:25:25;;;;;;;;;;;;;;;3.46;100.00;97103.34;5069613;28;19936;-59
2022/12/11 06:27:52;;;;;;;;;;;;;;;3.53;100.00;97102.13;5069545;28;19985;-59
2022/12/11 06:30:19;;;;;;;;;;;;;;;3.50;100.00;97109.72;5069924;28;19933;-59
2022/12/11 06:32:45;;;;;;;;;;;;;;;3.53;100.00;97104.78;5069840;28;19992;-59
2022/12/11 06:35:12;;;;;;;;;;;;;;;3.63;100.00;97098.88;5069619;28;19988;-59
2022/12/11 06:37:39;;;;;;;;;;;;;;;3.61;100.00;97100.97;5069691;28;19931;-59
2022/12/11 06:40:06;;;;;;;;;;;;;;;3.51;100.00;97108.69;5069581;28;19925;-59
2022/12/11 06:42:33;;;;;;;;;;;;;;;3.56;100.00;97100.88;5069554;28;20003;-58
2022/12/11 06:45:00;;;;;;;;;;;;;;;3.54;100.00;97110.84;5069684;28;19925;-59
2022/12/11 06:47:27;;;;;;;;;;;;;;;3.56;100.00;97106.16;5061221;28;19979;-59
2022/12/11 06:49:53;;;;;;;;;;;;;;;3.55;100.00;97118.56;5069675;28;19980;-60
2022/12/11 06:52:20;;;;;;;;;;;;;;;3.53;100.00;97119.84;5066868;28;19956;-59
2022/12/11 06:54:46;;;;;;;;;;;;;;;3.51;100.00;97112.13;5063684;28;19960;-59
2022/12/11 06:57:13;;;;;;;;;;;;;;;3.45;100.00;97118.38;5069150;28;19925;-59
2022/12/11 06:59:39;;;;;;;;;;;;;;;3.52;100.00;97123.50;5051371;28;19924;-59
2022/12/11 07:02:07;;;;;;;;;;;;;;;3.45;100.00;97122.84;5069274;28;19996;-59
2022/12/11 07:04:33;;;;;;;;;;;;;;;3.49;100.00;97119.50;5069143;28;19956;-59
2022/12/11 07:06:59;;;;;;;;;;;;;;;3.45;100.00;97122.84;5069144;28;19935;-59
2022/12/11 07:09:26;;;;;;;;;;;;;;;3.36;100.00;97126.91;5068961;28;19988;-59
2022/12/11 07:11:52;;;;;;;;;;;;;;;3.21;100.00;97128.22;5069321;28;20107;-58
2022/12/11 07:14:20;;;;;;;;;;;;;;;3.11;100.00;97120.13;5068942;28;19964;-59
2022/12/11 07:16:46;;;;;;;;;;;;;;;3.04;100.00;97124.72;5069008;28;19972;-59
2022/12/11 07:19:14;;;;;;;;;;;;;;;3.00;100.00;97125.44;5068703;28;20015;-59
2022/12/11 07:21:40;;;;;;;;;;;;;;;3.12;100.00;97118.28;5069066;28;19996;-58
2022/12/11 07:24:07;;;;;;;;;;;;;;;3.23;100.00;97125.34;5060535;28;20374;-60
2022/12/11 07:26:34;;;;;;;;;;;;;;;3.25;100.00;97129.34;5068618;28;19924;-59
2022/12/11 07:29:00;;;;;;;;;;;;;;;3.24;100.00;97125.13;5068454;28;19968;-59
2022/12/11 07:31:28;;;;;;;;;;;;;;;3.32;100.00;97128.41;5068723;28;20075;-59
2022/12/11 07:33:54;;;;;;;;;;;;;;;3.41;100.00;97119.88;5068655;28;19988;-59
2022/12/11 07:36:22;;;;;;;;;;;;;;;3.41;100.00;97121.69;5068531;28;19928;-58
2022/12/11 07:38:49;;;;;;;;;;;;;;;3.42;100.00;97124.13;5068365;28;19939;-59
2022/12/11 07:41:16;;;;;;;;;;;;;;;3.28;100.00;97118.31;5068572;28;19942;-61
2022/12/11 07:43:44;;;;;;;;;;;;;;;3.21;100.00;97112.41;5068444;28;19925;-59
2022/12/11 07:46:11;;;;;;;;;;;;;;;3.25;100.00;97115.34;5068301;28;19962;-59
2022/12/11 07:48:38;;;;;;;;;;;;;;;3.37;100.00;97115.31;5068586;28;19943;-58
2022/12/11 07:51:09;;;;;;;;;;;;;;;3.39;100.00;97118.50;5068663;28;19980;-59
2022/12/11 07:53:37;;;;;;;;;;;;;;;3.43;100.00;97119.66;5060368;28;19936;-60
2022/12/11 07:56:03;;;;;;;;;;;;;;;3.31;100.00;97132.09;5068544;28;19967;-58
2022/12/11 07:58:30;;;;;;;;;;;;;;;3.45;100.00;97128.13;5068409;28;19936;-60
2022/12/11 08:00:57;;;;;;;;;;;;;;;3.45;100.00;97122.84;5068632;28;19951;-60
2022/12/11 08:03:23;;;;;;;;;;;;;;;3.43;100.00;97135.47;5068207;28;19921;-59
2022/12/11 08:05:50;;;;;;;;;;;;;;;3.51;100.00;97138.53;5068347;28;19925;-59
2022/12/11 08:08:17;;;;;;;;;;;;;;;3.51;100.00;97129.81;5068222;28;19925;-60
2022/12/11 08:10:45;;;;;;;;;;;;;;;3.51;100.00;97138.53;5068281;28;19936;-59
2022/12/11 08:13:12;;;;;;;;;;;;;;;3.53;100.00;97147.00;5068362;28;19921;-59
2022/12/11 08:15:38;;;;;;;;;;;;;;;3.31;100.00;97140.00;5068229;28;19972;-60
2022/12/11 08:18:05;;;;;;;;;;;;;;;3.32;100.00;97145.03;5050228;28;19993;-59
2022/12/11 08:20:31;;;;;;;;;;;;;;;3.45;100.00;97143.94;5069284;28;20177;-59
2022/12/11 08:22:58;;;;;;;;;;;;;;;3.50;100.00;97144.03;5064699;28;19972;-58
2022/12/11 08:25:24;;;;;;;;;;;;;;;3.51;100.00;97146.44;5071839;28;20010;-59
2022/12/11 08:27:52;;;;;;;;;;;;;;;3.49;100.00;97155.66;5072269;28;19968;-59
2022/12/11 08:30:18;;;;;;;;;;;;;;;3.54;100.00;97147.81;5072278;28;19964;-60
2022/12/11 08:32:44;;;;;;;;;;;;;;;3.41;100.00;97148.91;5072217;28;19983;-58
2022/12/11 08:35:11;;;;;;;;;;;;;;;3.37;100.00;97144.34;5071975;28;19971;-59
2022/12/11 08:37:37;;;;;;;;;;;;;;;3.09;100.00;97142.50;5071923;28;19940;-59
2022/12/11 08:40:04;;;;;;;;;;;;;;;2.75;100.00;97146.81;5072166;28;19986;-59
2022/12/11 08:42:30;;;;;;;;;;;;;;;3.00;100.00;97147.31;5071968;28;19952;-59
2022/12/11 08:44:58;;;;;;;;;;;;;;;3.20;100.00;97145.09;5072019;28;19976;-59
2022/12/11 08:47:24;;;;;;;;;;;;;;;3.18;100.00;97143.72;5071650;28;19939;-59
2022/12/11 08:49:51;;;;;;;;;;;;;;;2.93;100.00;97151.13;5071807;28;20002;-59
2022/12/11 08:52:17;;;;;;;;;;;;;;;2.93;100.00;97151.13;5069969;28;19960;-61
2022/12/11 08:54:43;;;;;;;;;;;;;;;2.83;100.00;97150.91;5065760;28;19924;-59
2022/12/11 08:57:10;;;;;;;;;;;;;;;2.82;100.00;97150.09;5071553;28;20012;-59
2022/12/11 08:59:36;;;;;;;;;;;;;;;2.95;100.00;97155.13;5071701;28;19925;-58
2022/12/11 09:02:04;;;;;;;;;;;;;;;2.81;100.00;97143.25;5072076;28;19925;-60
2022/12/11 09:04:30;;;;;;;;;;;;;;;2.87;100.00;97149.41;5072107;28;19971;-60
2022/12/11 09:06:56;;;;;;;;;;;;;;;3.03;100.00;97146.06;5072369;28;19931;-59
2022/12/11 09:09:23;;;;;;;;;;;;;;;3.02;100.00;97145.25;5071820;28;20023;-59
2022/12/11 09:11:49;;;;;;;;;;;;;;;3.19;100.00;97147.94;5071769;28;19925;-60
2022/12/11 09:14:16;;;;;;;;;;;;;;;3.07;100.00;97152.44;5071710;28;19954;-59
2022/12/11 09:16:42;;;;;;;;;;;;;;;2.89;100.00;97153.41;5072028;28;19932;-58
2022/12/11 09:19:11;;;;;;;;;;;;;;;2.97;100.00;97152.28;5072176;28;19997;-59
2022/12/11 09:21:38;;;;;;;;;;;;;;;3.03;100.00;97146.84;5072267;28;19912;-58
2022/12/11 09:24:04;;;;;;;;;;;;;;;3.00;100.00;97135.97;5063488;28;20003;-61
2022/12/11 09:26:31;;;;;;;;;;;;;;;3.10;100.00;97150.16;5071819;28;19929;-60
2022/12/11 09:28:57;;;;;;;;;;;;;;;3.19;100.00;97142.66;5071569;28;19935;-59
2022/12/11 09:31:25;;;;;;;;;;;;;;;3.31;100.00;97140.81;5071145;28;19988;-59
2022/12/11 09:33:52;;;;;;;;;;;;;;;3.37;100.00;97144.34;5071077;28;19927;-58
2022/12/11 09:36:19;;;;;;;;;;;;;;;3.34;100.00;97147.44;5071058;28;20074;-58
2022/12/11 09:38:46;;;;;;;;;;;;;;;3.29;100.00;97150.78;5070973;28;19981;-59
2022/12/11 09:41:30;;;;;;;;;;;;;;;3.35;100.00;97143.75;5071069;28;19939;-58
2022/12/11 09:44:01;;;;;;;;;;;;;;;3.25;100.00;97139.91;5060771;28;19992;-59
2022/12/11 09:46:28;;;;;;;;;;;;;;;3.32;100.00;97138.94;5062857;28;19988;-59
2022/12/11 09:48:55;;;;;;;;;;;;;;;3.22;100.00;97132.44;5071242;28;20268;-59
2022/12/11 09:51:25;;;;;;;;;;;;;;;3.23;100.00;97147.25;5071049;28;19963;-59
2022/12/11 09:53:52;;;;;;;;;;;;;;;3.22;100.00;97140.38;5062766;28;19920;-59
2022/12/11 09:56:22;;;;;;;;;;;;;;;3.07;100.00;97137.44;5071294;28;19948;-59
2022/12/11 09:58:57;;;;;;;;;;;;;;;3.28;100.00;97129.94;5071186;28;19925;-58
2022/12/11 10:01:31;;;;;;;;;;;;;;;3.25;100.00;97128.53;5070973;28;19925;-61
2022/12/11 10:04:05;;;;;;;;;;;;;;;3.23;100.00;97128.78;5070928;28;20072;-60
2022/12/11 10:06:36;;;;;;;;;;;;;;;3.21;100.00;97120.31;5062915;28;20019;-59
2022/12/11 10:09:08;;;;;;;;;;;;;;;3.14;100.00;97111.72;5070518;28;20005;-59
2022/12/11 10:11:40;;;;;;;;;;;;;;;3.07;100.00;97116.34;5070184;28;19925;-59
2022/12/11 10:14:13;;;;;;;;;;;;;;;3.22;100.00;97113.16;5070394;28;19988;-59
2022/12/11 10:16:41;;;;;;;;;;;;;;;3.10;100.00;97115.88;5070223;28;20023;-61
2022/12/11 10:19:14;;;;;;;;;;;;;;;2.96;100.00;97109.28;5070506;28;19988;-59
2022/12/11 10:21:42;;;;;;;;;;;;;;;2.86;100.00;97116.97;5070014;28;19992;-60
2022/12/11 10:24:14;;;;;;;;;;;;;;;2.85;100.00;97110.09;5069800;28;20059;-59
2022/12/11 10:26:40;;;;;;;;;;;;;;;2.96;100.00;97109.28;5069972;28;19925;-59
2022/12/11 10:29:13;;;;;;;;;;;;;;;3.06;100.00;97101.56;5069760;28;19975;-60
2022/12/11 10:31:44;;;;;;;;;;;;;;;2.98;100.00;97101.91;5069781;28;19929;-59
2022/12/11 10:34:12;;;;;;;;;;;;;;;2.95;100.00;97105.03;5069882;28;19925;-60
2022/12/11 10:36:40;;;;;;;;;;;;;;;2.92;100.00;97100.22;5069857;28;19924;-59
2022/12/11 10:39:12;;;;;;;;;;;;;;;3.04;100.00;97090.44;5069755;28;19958;-59
2022/12/11 10:41:39;;;;;;;;;;;;;;;3.09;100.00;97098.44;5069706;28;19924;-59
2022/12/11 10:44:16;;;;;;;;;;;;;;;3.01;100.00;97087.44;5069226;28;20007;-60
2022/12/11 10:46:43;;;;;;;;;;;;;;;3.13;100.00;97089.00;5069339;28;19936;-60
2022/12/11 10:49:20;;;;;;;;;;;;;;;3.16;100.00;97079.81;5069745;28;19971;-60
2022/12/11 10:51:47;;;;;;;;;;;;;;;2.99;100.00;97076.34;5069758;28;19925;-61
2022/12/11 10:54:25;;;;;;;;;;;;;;;3.09;100.00;97087.09;5069523;28;19924;-60
2022/12/11 10:56:52;;;;;;;;;;;;;;;3.13;100.00;97077.66;5069642;28;19925;-59
2022/12/11 10:59:23;;;;;;;;;;;;;;;3.22;100.00;97084.97;5069317;28;19937;-59
2022/12/11 11:01:50;;;;;;;;;;;;;;;3.00;100.00;97067.41;5069383;28;19929;-59
2022/12/11 11:04:24;;;;;;;;;;;;;;;3.17;100.00;97069.03;5069270;28;19975;-58
2022/12/11 11:07:01;;;;;;;;;;;;;;;3.31;100.00;97072.22;5069167;28;20250;-59
2022/12/11 11:09:30;;;;;;;;;;;;;;;3.38;100.00;97058.84;5069292;28;20334;-59
2022/12/11 11:11:56;;;;;;;;;;;;;;;3.13;100.00;97057.34;5069125;28;19935;-60
2022/12/11 11:14:22;;;;;;;;;;;;;;;3.24;100.00;97061.00;5069155;28;19959;-59
2022/12/11 11:16:50;;;;;;;;;;;;;;;3.12;100.00;97045.22;5069202;28;20027;-60
2022/12/11 11:19:19;;;;;;;;;;;;;;;2.84;100.00;97047.06;5069425;28;19931;-59
2022/12/11 11:21:49;;;;;;;;;;;;;;;2.88;100.00;97043.69;5069227;28;19992;-59
2022/12/11 11:24:24;;;;;;;;;;;;;;;2.68;100.00;97032.78;5069140;28;19935;-60
2022/12/11 11:26:51;;;;;;;;;;;;;;;2.84;100.00;97039.94;5069128;28;19932;-60
2022/12/11 11:29:22;;;;;;;;;;;;;;;2.88;100.00;97042.91;5068904;28;19980;-60
2022/12/11 11:31:49;;;;;;;;;;;;;;;2.89;100.00;97032.13;5068827;28;19944;-59
2022/12/11 11:34:18;;;;;;;;;;;;;;;3.05;100.00;97034.00;5068658;28;19964;-60
2022/12/11 11:36:55;;;;;;;;;;;;;;;3.17;100.00;97023.41;5068575;28;20016;-59
2022/12/11 11:39:26;;;;;;;;;;;;;;;3.19;100.00;97018.66;5068393;28;20171;-60
2022/12/11 11:41:57;;;;;;;;;;;;;;;3.26;100.00;97009.59;5068482;28;19960;-59
2022/12/11 11:44:28;;;;;;;;;;;;;;;3.15;100.00;97007.81;5068612;28;19968;-60
2022/12/11 11:46:56;;;;;;;;;;;;;;;3.14;100.00;97008.03;5068813;28;19929;-59
2022/12/11 11:49:27;;;;;;;;;;;;;;;3.03;100.00;97004.41;5068236;28;20001;-59
2022/12/11 11:51:56;;;;;;;;;;;;;;;2.77;100.00;97012.09;5068481;28;20007;-59
2022/12/11 11:54:28;;;;;;;;;;;;;;;2.72;100.00;97007.56;5068235;28;19996;-59
2022/12/11 11:56:57;;;;;;;;;;;;;;;2.89;100.00;97002.31;5066459;28;19988;-59
2022/12/11 11:59:25;;;;;;;;;;;;;;;2.94;100.00;97007.69;5068633;28;19928;-59
2022/12/11 12:01:53;;;;;;;;;;;;;;;2.99;100.00;97005.13;5068275;28;19925;-59
2022/12/11 12:04:20;;;;;;;;;;;;;;;3.04;100.00;97015.78;5068350;28;20583;-60
2022/12/11 12:07:00;;;;;;;;;;;;;;;3.04;100.00;97010.50;5068712;28;19921;-59
2022/12/11 12:09:33;;;;;;;;;;;;;;;3.08;100.00;97011.63;5068143;28;19924;-59
2022/12/11 12:12:07;;;;;;;;;;;;;;;2.90;100.00;97002.09;5068738;28;20499;-59
2022/12/11 12:14:38;;;;;;;;;;;;;;;2.95;100.00;97004.81;5060511;28;19992;-60
2022/12/11 12:17:12;;;;;;;;;;;;;;;2.71;100.00;97000.66;5068347;28;20036;-60
2022/12/11 12:19:51;;;;;;;;;;;;;;;2.77;100.00;96993.66;5068411;28;19984;-58
2022/12/11 12:22:26;;;;;;;;;;;;;;;2.51;100.00;96989.72;5068080;28;20012;-59
2022/12/11 12:24:59;;;;;;;;;;;;;;;2.55;100.00;96986.41;5068367;28;19981;-61
2022/12/11 12:27:30;;;;;;;;;;;;;;;2.63;100.00;96990.50;5068664;28;19924;-60
2022/12/11 12:30:01;;;;;;;;;;;;;;;2.66;100.00;96977.63;5068198;28;19929;-59
2022/12/11 12:32:31;;;;;;;;;;;;;;;2.79;100.00;96979.19;5060188;28;19925;-58
2022/12/11 12:35:04;;;;;;;;;;;;;;;2.80;100.00;96986.06;5067111;28;19925;-62
2022/12/11 12:37:38;;;;;;;;;;;;;;;2.73;100.00;96982.78;5060316;28;19955;-60
2022/12/11 12:40:12;;;;;;;;;;;;;;;2.83;100.00;96990.88;5067952;28;19924;-59
2022/12/11 12:42:47;;;;;;;;;;;;;;;2.93;100.00;96993.72;5068320;28;20035;-59
2022/12/11 12:45:17;;;;;;;;;;;;;;;2.82;100.00;96991.09;5068255;28;19993;-58
2022/12/11 12:47:45;;;;;;;;;;;;;;;2.83;100.00;96993.50;5067911;28;19992;-60
2022/12/11 12:50:14;;;;;;;;;;;;;;;2.86;100.00;96993.03;5068108;28;19960;-59
2022/12/11 12:52:41;;;;;;;;;;;;;;;2.71;100.00;96990.94;5067974;28;19971;-58
2022/12/11 12:55:16;;;;;;;;;;;;;;;2.72;100.00;96994.38;5068036;28;19932;-60
2022/12/11 12:57:47;;;;;;;;;;;;;;;2.65;100.00;96985.78;5067942;28;19956;-59
2022/12/11 13:00:25;;;;;;;;;;;;;;;2.55;100.00;96980.31;5067832;28;19995;-59